Time;durP1;ratioP1;P1;durP2;ratioP2;P2;SDS_P1;SDS_P2;PMS_P1;PMS_P2;Temp;Humidity;BMP_temperature;BMP_pressure;BME280_temperature;BME280_humidity;BME280_pressure;Samples;Min_cycle;Max_cycle;Signal;HPM_P1;HPM_P2
2021/12/05 00:17:54;;;;;;;126.07;41.45;;;;;;;;;;6231194;28;20030;-89
2021/12/05 00:24:01;;;;;;;117.03;39.47;;;;;;;;;;6232707;28;20767;-89
2021/12/05 00:27:06;;;;;;;110.68;38.15;;;;;;;;;;6240186;28;20553;-89
2021/12/05 00:40:40;;;;;;;54.28;22.20;;;;;;;;;;6239125;28;20087;-89
2021/12/05 01:15:23;;;;;;;52.83;22.40;;;;;;;;;;6233172;28;20475;-89
2021/12/05 01:18:25;;;;;;;50.75;21.55;;;;;;;;;;6235336;28;20504;-89
2021/12/05 01:21:26;;;;;;;49.42;20.55;;;;;;;;;;6237863;28;20025;-89
2021/12/05 01:27:44;;;;;;;47.80;19.63;;;;;;;;;;6233435;28;20033;-89
2021/12/05 01:37:16;;;;;;;47.78;18.08;;;;;;;;;;6223601;28;20394;-89
2021/12/05 01:44:24;;;;;;;56.55;23.58;;;;;;;;;;6237883;28;20029;-89
2021/12/05 02:02:55;;;;;;;;;;;;;;;;;;6236884;28;20060;-89
2021/12/05 02:16:18;;;;;;;58.88;26.35;;;;;;;;;;6234820;28;20781;-89
2021/12/05 02:29:40;;;;;;;49.13;20.92;;;;;;;;;;6234291;28;20041;-89
2021/12/05 02:36:22;;;;;;;;;;;;;;;;;;6235499;28;20151;-89
2021/12/05 02:39:26;;;;;;;41.95;18.80;;;;;;;;;;6230812;28;20340;-89
2021/12/05 02:42:39;;;;;;;39.90;17.42;;;;;;;;;;6234653;28;20129;-89
2021/12/05 02:45:41;;;;;;;39.80;18.60;;;;;;;;;;6232854;28;20410;-89
2021/12/05 02:48:41;;;;;;;;;;;;;;;;;;6234461;28;20025;-89
2021/12/05 02:51:42;;;;;;;40.40;17.02;;;;;;;;;;6228392;28;19962;-89
2021/12/05 02:54:48;;;;;;;39.05;15.23;;;;;;;;;;6236564;28;20021;-89
2021/12/05 02:57:55;;;;;;;40.17;18.00;;;;;;;;;;6236105;28;20033;-89
2021/12/05 03:03:59;;;;;;;31.45;14.60;;;;;;;;;;6235467;28;20571;-89
2021/12/05 03:07:04;;;;;;;33.00;14.93;;;;;;;;;;6231992;28;20030;-89
2021/12/05 03:10:05;;;;;;;30.27;14.18;;;;;;;;;;6236964;28;20072;-89
2021/12/05 03:13:05;;;;;;;29.23;14.93;;;;;;;;;;6236005;28;20108;-89
2021/12/05 03:16:07;;;;;;;32.65;12.75;;;;;;;;;;6232390;28;20025;-89
2021/12/05 03:19:09;;;;;;;29.73;13.07;;;;;;;;;;6233858;28;20029;-89
2021/12/05 03:22:09;;;;;;;;;;;;;;;;;;6235323;28;20505;-89
2021/12/05 03:25:10;;;;;;;35.90;17.20;;;;;;;;;;6238064;28;19916;-89
2021/12/05 03:28:10;;;;;;;38.63;15.82;;;;;;;;;;6235176;28;20013;-89
2021/12/05 03:31:11;;;;;;;37.30;16.92;;;;;;;;;;6237355;28;20029;-89
2021/12/05 03:34:12;;;;;;;49.08;20.50;;;;;;;;;;6235622;28;20108;-89
2021/12/05 03:37:12;;;;;;;52.60;22.73;;;;;;;;;;6231341;28;20049;-89
2021/12/05 03:40:13;;;;;;;45.00;22.30;;;;;;;;;;6234548;28;20020;-89
2021/12/05 03:43:15;;;;;;;41.85;19.08;;;;;;;;;;6234732;28;20368;-89
2021/12/05 03:46:16;;;;;;;37.60;19.85;;;;;;;;;;6230534;28;20024;-89
2021/12/05 03:49:16;;;;;;;41.33;20.80;;;;;;;;;;6235392;28;20041;-89
2021/12/05 03:52:17;;;;;;;43.38;20.08;;;;;;;;;;6231236;28;20033;-88
2021/12/05 03:55:18;;;;;;;36.30;17.38;;;;;;;;;;6233715;28;20032;-89
2021/12/05 03:58:19;;;;;;;28.60;14.90;;;;;;;;;;6237765;28;20044;-88
2021/12/05 04:01:20;;;;;;;35.67;18.42;;;;;;;;;;6242827;28;20203;-89
2021/12/05 04:04:20;;;;;;;33.13;15.65;;;;;;;;;;6241881;28;20021;-88
2021/12/05 04:07:21;;;;;;;32.58;14.25;;;;;;;;;;6240989;28;20033;-88
2021/12/05 04:10:21;;;;;;;37.72;16.83;;;;;;;;;;6255346;28;20018;-89
2021/12/05 04:13:22;;;;;;;35.92;18.38;;;;;;;;;;6241170;28;20432;-88
2021/12/05 04:16:22;;;;;;;39.83;17.20;;;;;;;;;;6236803;28;20112;-89
2021/12/05 04:19:23;;;;;;;40.55;17.80;;;;;;;;;;6235543;28;20042;-88
2021/12/05 04:22:23;;;;;;;38.67;18.45;;;;;;;;;;6236382;28;20367;-88
2021/12/05 04:25:25;;;;;;;29.38;15.43;;;;;;;;;;6237478;28;20033;-88
2021/12/05 04:28:25;;;;;;;30.23;15.35;;;;;;;;;;6240487;28;20022;-89
2021/12/05 04:31:26;;;;;;;28.80;16.35;;;;;;;;;;6240036;28;20400;-89
2021/12/05 04:34:26;;;;;;;34.60;17.75;;;;;;;;;;6240022;28;20398;-89
2021/12/05 04:37:27;;;;;;;36.80;16.75;;;;;;;;;;6238388;28;20040;-89
2021/12/05 04:40:27;;;;;;;36.80;17.40;;;;;;;;;;6236897;28;20785;-89
2021/12/05 04:43:35;;;;;;;34.75;16.85;;;;;;;;;;6238274;28;20536;-89
2021/12/05 04:46:36;;;;;;;37.85;16.45;;;;;;;;;;6229002;28;20028;-89
2021/12/05 04:49:39;;;;;;;35.10;19.75;;;;;;;;;;6251028;28;20053;-89
2021/12/05 04:52:40;;;;;;;39.03;17.67;;;;;;;;;;6234529;28;20079;-89
2021/12/05 04:55:40;;;;;;;39.22;18.30;;;;;;;;;;6240108;28;20018;-88
2021/12/05 04:58:40;;;;;;;37.35;18.23;;;;;;;;;;6237956;28;20025;-89
2021/12/05 05:01:41;;;;;;;34.25;17.73;;;;;;;;;;6236723;28;20009;-88
2021/12/05 05:04:47;;;;;;;26.67;16.65;;;;;;;;;;6234841;28;20813;-89
2021/12/05 05:07:48;;;;;;;31.95;17.15;;;;;;;;;;6236421;28;20021;-89
2021/12/05 05:10:48;;;;;;;38.78;17.63;;;;;;;;;;6237333;28;20047;-89
2021/12/05 05:13:49;;;;;;;33.95;18.20;;;;;;;;;;6241331;28;20026;-89
2021/12/05 05:16:53;;;;;;;37.35;18.17;;;;;;;;;;6236755;28;20078;-88
2021/12/05 05:20:00;;;;;;;41.13;17.00;;;;;;;;;;6233178;28;20377;-89
2021/12/05 05:29:39;;;;;;;28.08;15.00;;;;;;;;;;6233015;28;20039;-89
2021/12/05 05:49:00;;;;;;;18.27;9.65;;;;;;;;;;6233731;28;20446;-89
2021/12/05 05:52:00;;;;;;;19.55;10.52;;;;;;;;;;6247748;28;20071;-88
2021/12/05 05:55:00;;;;;;;21.67;10.40;;;;;;;;;;6232234;28;20029;-88
2021/12/05 05:58:07;;;;;;;19.70;9.73;;;;;;;;;;6233775;28;20025;-88
2021/12/05 06:01:17;;;;;;;28.85;10.82;;;;;;;;;;6232765;28;20028;-88
2021/12/05 06:04:18;;;;;;;20.38;9.18;;;;;;;;;;6238859;28;20056;-89
2021/12/05 06:07:18;;;;;;;24.73;11.20;;;;;;;;;;6236431;28;20013;-89
2021/12/05 06:10:21;;;;;;;18.23;9.02;;;;;;;;;;6234785;28;20033;-89
2021/12/05 06:13:22;;;;;;;18.55;9.63;;;;;;;;;;6236204;28;20044;-88
2021/12/05 06:16:22;;;;;;;21.60;9.57;;;;;;;;;;6230412;28;20041;-89
2021/12/05 06:19:22;;;;;;;20.08;10.23;;;;;;;;;;6249728;28;20035;-89
2021/12/05 06:22:22;;;;;;;22.67;9.55;;;;;;;;;;6236617;28;20030;-89
2021/12/05 06:25:24;;;;;;;23.15;11.15;;;;;;;;;;6236247;28;20438;-88
2021/12/05 06:28:39;;;;;;;21.88;10.98;;;;;;;;;;6251225;28;20029;-88
2021/12/05 06:41:23;;;;;;;22.65;9.30;;;;;;;;;;6231986;28;20497;-88
2021/12/05 06:47:42;;;;;;;18.92;10.25;;;;;;;;;;6233191;28;20545;-88
2021/12/05 06:50:43;;;;;;;24.70;11.35;;;;;;;;;;6234534;28;20128;-89
2021/12/05 06:53:43;;;;;;;23.50;11.38;;;;;;;;;;6231349;28;20083;-87
2021/12/05 06:56:43;;;;;;;27.75;14.15;;;;;;;;;;6231741;28;20108;-88
2021/12/05 06:59:45;;;;;;;29.73;16.25;;;;;;;;;;6229143;28;20028;-88
2021/12/05 07:02:45;;;;;;;27.55;15.35;;;;;;;;;;6233191;28;20443;-88
2021/12/05 07:05:56;;;;;;;26.45;12.80;;;;;;;;;;6226425;28;20040;-88
2021/12/05 07:09:04;;;;;;;25.83;13.60;;;;;;;;;;6227505;28;20292;-88
2021/12/05 07:13:24;;;;;;;36.33;19.13;;;;;;;;;;6229822;28;20040;-89
2021/12/05 07:18:54;;;;;;;29.42;15.18;;;;;;;;;;6233144;28;20040;-88
2021/12/05 07:21:58;;;;;;;44.15;24.80;;;;;;;;;;6225789;28;20014;-89
2021/12/05 07:25:12;;;;;;;46.75;20.38;;;;;;;;;;6227793;28;20024;-89
2021/12/05 07:44:32;;;;;;;30.50;16.50;;;;;;;;;;6226495;28;20179;-88
2021/12/05 07:47:34;;;;;;;37.35;22.50;;;;;;;;;;6229407;28;20025;-88
2021/12/05 07:50:44;;;;;;;45.33;24.33;;;;;;;;;;6226092;28;20057;-88
2021/12/05 07:56:52;;;;;;;58.28;32.53;;;;;;;;;;6228592;28;20037;-88
2021/12/05 08:16:29;;;;;;;48.42;24.50;;;;;;;;;;6221289;28;20450;-88
2021/12/05 08:19:30;;;;;;;44.15;23.92;;;;;;;;;;6223104;28;20572;-89
2021/12/05 08:22:30;;;;;;;48.15;25.30;;;;;;;;;;6221247;28;20028;-88
2021/12/05 08:25:32;;;;;;;37.67;21.65;;;;;;;;;;6224021;28;20014;-88
2021/12/05 08:35:46;;;;;;;40.63;20.65;;;;;;;;;;6224987;28;20033;-88
2021/12/05 09:22:12;;;;;;;63.83;29.45;;;;;;;;;;6237174;28;20120;-88
2021/12/05 10:11:26;;;;;;;56.65;27.48;;;;;;;;;;6232822;28;20030;-87
2021/12/05 10:17:54;;;;;;;38.55;18.50;;;;;;;;;;6237657;28;20112;-87
2021/12/05 10:34:15;;;;;;;43.28;23.92;;;;;;;;;;6237059;28;20040;-88
2021/12/05 10:37:22;;;;;;;49.60;25.75;;;;;;;;;;6254067;28;20460;-89
2021/12/05 10:40:34;;;;;;;41.78;22.23;;;;;;;;;;6251258;28;20041;-89
2021/12/05 10:43:34;;;;;;;45.38;21.67;;;;;;;;;;6236155;28;20026;-90
2021/12/05 10:46:35;;;;;;;45.63;20.80;;;;;;;;;;6238304;28;20004;-90
2021/12/05 10:49:36;;;;;;;51.03;27.75;;;;;;;;;;6243096;28;20088;-90
2021/12/05 10:52:36;;;;;;;48.10;29.05;;;;;;;;;;6245077;28;20025;-90
2021/12/05 10:55:36;;;;;;;46.45;25.13;;;;;;;;;;6240479;28;20680;-91
2021/12/05 10:58:42;;;;;;;41.08;18.70;;;;;;;;;;6242399;28;20168;-90
2021/12/05 11:01:50;;;;;;;47.83;23.75;;;;;;;;;;6250888;28;20037;-90
2021/12/05 11:04:51;;;;;;;53.50;30.73;;;;;;;;;;6239695;28;20017;-90
2021/12/05 11:07:51;;;;;;;56.22;29.17;;;;;;;;;;6238868;28;20619;-90
2021/12/05 11:11:04;;;;;;;70.47;33.42;;;;;;;;;;6239741;28;20021;-90
2021/12/05 11:14:09;;;;;;;66.15;30.55;;;;;;;;;;6236990;28;20086;-90
2021/12/05 11:17:11;;;;;;;70.93;29.02;;;;;;;;;;6235281;28;20017;-90
2021/12/05 11:20:28;;;;;;;68.47;35.42;;;;;;;;;;6236155;28;20029;-90
2021/12/05 11:23:29;;;;;;;71.95;37.35;;;;;;;;;;6250696;28;20041;-90
2021/12/05 11:26:30;;;;;;;60.72;24.77;;;;;;;;;;6232138;28;20018;-89
2021/12/05 11:29:42;;;;;;;48.83;25.13;;;;;;;;;;6235407;28;20021;-89
2021/12/05 11:32:43;;;;;;;94.05;40.28;;;;;;;;;;6239824;28;20389;-89
2021/12/05 11:35:47;;;;;;;91.28;41.00;;;;;;;;;;6235717;28;20030;-89
2021/12/05 11:38:48;;;;;;;88.38;38.78;;;;;;;;;;6231764;28;20032;-88
2021/12/05 11:41:49;;;;;;;82.07;35.45;;;;;;;;;;6237046;28;20378;-88
2021/12/05 11:44:54;;;;;;;35.45;19.83;;;;;;;;;;6236258;28;20108;-88
2021/12/05 11:47:54;;;;;;;44.60;23.38;;;;;;;;;;6233270;28;20108;-88
2021/12/05 11:50:55;;;;;;;45.15;24.30;;;;;;;;;;6233154;28;20086;-89
2021/12/05 11:53:58;;;;;;;42.92;23.20;;;;;;;;;;6232975;28;20063;-88
2021/12/05 11:57:06;;;;;;;41.25;24.75;;;;;;;;;;6235091;28;20033;-89
2021/12/05 12:00:10;;;;;;;44.65;24.83;;;;;;;;;;6237548;28;20116;-89
2021/12/05 12:03:10;;;;;;;27.55;14.10;;;;;;;;;;6239229;28;20473;-89
2021/12/05 12:06:17;;;;;;;40.97;23.23;;;;;;;;;;6235835;28;20041;-89
2021/12/05 12:09:17;;;;;;;39.90;18.35;;;;;;;;;;6232521;28;20447;-90
2021/12/05 12:12:17;;;;;;;36.03;17.88;;;;;;;;;;6249293;28;20033;-89
2021/12/05 12:15:19;;;;;;;43.35;24.10;;;;;;;;;;6237955;28;20048;-89
2021/12/05 12:18:27;;;;;;;30.67;14.57;;;;;;;;;;6235532;28;20029;-89
2021/12/05 12:21:37;;;;;;;46.70;25.13;;;;;;;;;;6243349;28;20039;-88
2021/12/05 12:24:39;;;;;;;53.33;27.23;;;;;;;;;;6241883;28;20087;-88
2021/12/05 12:27:44;;;;;;;52.50;25.88;;;;;;;;;;6243410;28;20084;-88
2021/12/05 12:30:48;;;;;;;41.67;22.08;;;;;;;;;;6251356;28;20041;-88
2021/12/05 12:33:50;;;;;;;29.65;16.52;;;;;;;;;;6242152;28;20025;-88
2021/12/05 12:36:50;;;;;;;;;;;;;;;;;;6238396;28;20128;-88
2021/12/05 12:40:03;;;;;;;80.03;37.40;;;;;;;;;;6236358;28;19921;-87
2021/12/05 12:43:05;;;;;;;61.33;32.35;;;;;;;;;;6239498;28;20018;-88
2021/12/05 12:46:34;;;;;;;58.90;32.03;;;;;;;;;;6235339;28;20412;-87
2021/12/05 12:49:36;;;;;;;59.60;31.25;;;;;;;;;;6227026;28;20184;-87
2021/12/05 12:52:54;;;;;;;78.78;41.40;;;;;;;;;;6237739;28;20478;-88
2021/12/05 12:55:59;;;;;;;65.07;37.28;;;;;;;;;;6239004;28;20100;-88
2021/12/05 12:59:02;;;;;;;65.05;32.38;;;;;;;;;;6238711;28;20079;-88
2021/12/05 13:05:40;;;;;;;70.70;36.65;;;;;;;;;;6239857;28;20075;-87
2021/12/05 13:12:10;;;;;;;55.42;31.58;;;;;;;;;;6238189;28;20033;-87
2021/12/05 13:15:29;;;;;;;58.25;30.77;;;;;;;;;;6238634;28;20028;-88
2021/12/05 13:18:31;;;;;;;64.72;36.67;;;;;;;;;;6240516;28;20378;-87
2021/12/05 13:21:38;;;;;;;56.97;31.92;;;;;;;;;;6234861;28;20036;-88
2021/12/05 13:24:44;;;;;;;68.15;35.90;;;;;;;;;;6235364;28;20112;-88
2021/12/05 13:27:44;;;;;;;69.55;38.15;;;;;;;;;;6241142;28;20048;-87
2021/12/05 13:30:45;;;;;;;64.00;33.90;;;;;;;;;;6240032;28;20509;-88
2021/12/05 13:33:46;;;;;;;66.70;38.97;;;;;;;;;;6236587;28;20120;-88
2021/12/05 13:36:52;;;;;;;59.63;37.97;;;;;;;;;;6252863;28;20079;-87
2021/12/05 13:39:55;;;;;;;71.60;39.55;;;;;;;;;;6237705;28;20032;-88
2021/12/05 13:43:01;;;;;;;68.60;38.28;;;;;;;;;;6242132;28;20644;-87
2021/12/05 13:46:22;;;;;;;52.05;30.13;;;;;;;;;;6242415;28;20025;-88
2021/12/05 13:49:36;;;;;;;55.08;33.55;;;;;;;;;;6240037;28;20497;-88
2021/12/05 13:52:38;;;;;;;59.50;35.10;;;;;;;;;;6230124;28;20144;-87
2021/12/05 13:55:39;;;;;;;60.60;34.55;;;;;;;;;;6232828;28;20025;-88
2021/12/05 13:58:41;;;;;;;71.53;39.85;;;;;;;;;;6252038;28;20022;-88
2021/12/05 14:01:45;;;;;;;63.53;36.05;;;;;;;;;;6235015;28;20033;-87
2021/12/05 14:04:46;;;;;;;73.57;38.88;;;;;;;;;;6239373;28;20027;-88
2021/12/05 14:07:48;;;;;;;83.47;44.20;;;;;;;;;;6238137;28;20025;-87
2021/12/05 14:10:49;;;;;;;52.78;31.15;;;;;;;;;;6232727;28;20254;-87
2021/12/05 14:13:49;;;;;;;53.78;32.80;;;;;;;;;;6237396;28;20021;-88
2021/12/05 14:16:51;;;;;;;65.68;38.55;;;;;;;;;;6238322;28;20030;-88
2021/12/05 14:19:53;;;;;;;75.83;44.10;;;;;;;;;;6232450;28;20202;-87
2021/12/05 14:22:54;;;;;;;83.22;48.42;;;;;;;;;;6231217;28;20974;-88
2021/12/05 14:25:56;;;;;;;76.30;41.63;;;;;;;;;;6232132;28;20022;-87
2021/12/05 14:29:17;;;;;;;71.88;41.65;;;;;;;;;;6236252;28;20029;-87
2021/12/05 14:32:40;;;;;;;72.60;41.25;;;;;;;;;;6230507;28;20490;-88
2021/12/05 14:35:42;;;;;;;76.00;39.47;;;;;;;;;;6230664;28;20042;-88
2021/12/05 14:38:42;;;;;;;75.35;41.13;;;;;;;;;;6232466;28;20028;-87
2021/12/05 14:41:43;;;;;;;78.10;43.35;;;;;;;;;;6224066;28;20578;-87
2021/12/05 14:44:46;;;;;;;82.38;42.55;;;;;;;;;;6220526;28;20025;-87
2021/12/05 14:47:47;;;;;;;78.43;40.35;;;;;;;;;;6227793;28;20486;-87
2021/12/05 14:50:51;;;;;;;74.57;38.63;;;;;;;;;;6231266;28;20115;-88
2021/12/05 14:53:52;;;;;;;68.15;36.20;;;;;;;;;;6231211;28;20113;-87
2021/12/05 14:56:52;;;;;;;65.07;37.00;;;;;;;;;;6231718;28;20329;-87
2021/12/05 14:59:58;;;;;;;99.25;50.15;;;;;;;;;;6230861;28;20640;-87
2021/12/05 15:03:03;;;;;;;121.78;62.60;;;;;;;;;;6231054;28;20017;-87
2021/12/05 15:06:05;;;;;;;112.13;68.38;;;;;;;;;;6246747;28;20452;-87
2021/12/05 15:09:15;;;;;;;118.88;55.97;;;;;;;;;;6226572;28;20513;-87
2021/12/05 15:12:19;;;;;;;99.70;53.67;;;;;;;;;;6230020;28;20026;-87
2021/12/05 15:15:21;;;;;;;86.63;44.70;;;;;;;;;;6233878;28;20044;-87
2021/12/05 15:18:24;;;;;;;79.80;38.13;;;;;;;;;;6242389;28;20029;-87
2021/12/05 15:21:27;;;;;;;86.60;46.25;;;;;;;;;;6228896;28;20040;-87
2021/12/05 15:24:27;;;;;;;91.57;44.15;;;;;;;;;;6229975;28;20026;-87
2021/12/05 15:27:30;;;;;;;96.13;46.10;;;;;;;;;;6241390;28;20032;-87
2021/12/05 15:30:41;;;;;;;110.95;53.90;;;;;;;;;;6227543;28;20116;-86
2021/12/05 15:33:42;;;;;;;80.13;36.88;;;;;;;;;;6228959;28;20026;-86
2021/12/05 15:36:42;;;;;;;86.30;39.45;;;;;;;;;;6226647;28;20021;-87
2021/12/05 15:39:44;;;;;;;67.53;33.80;;;;;;;;;;6227246;28;20026;-88
2021/12/05 15:42:45;;;;;;;80.68;42.10;;;;;;;;;;6225872;28;20033;-88
2021/12/05 15:45:46;;;;;;;77.68;39.55;;;;;;;;;;6227883;28;20014;-88
2021/12/05 15:48:48;;;;;;;58.88;27.55;;;;;;;;;;6229580;28;20009;-88
2021/12/05 15:51:50;;;;;;;76.75;38.75;;;;;;;;;;6237849;28;20412;-88
2021/12/05 15:54:51;;;;;;;78.88;35.92;;;;;;;;;;6236206;28;20013;-88
2021/12/05 15:57:59;;;;;;;54.65;27.70;;;;;;;;;;6235648;28;20026;-88
2021/12/05 16:00:59;;;;;;;57.83;26.95;;;;;;;;;;6245280;28;20178;-88
2021/12/05 16:04:02;;;;;;;62.85;31.63;;;;;;;;;;6250590;28;20017;-88
2021/12/05 16:07:08;;;;;;;67.15;34.55;;;;;;;;;;6243319;28;20014;-88
2021/12/05 16:10:10;;;;;;;61.97;31.70;;;;;;;;;;6243155;28;20048;-88
2021/12/05 16:13:10;;;;;;;;;;;;;;;;;;6241426;28;20041;-88
2021/12/05 16:16:12;;;;;;;66.88;34.40;;;;;;;;;;6231436;28;19909;-88
2021/12/05 16:19:13;;;;;;;;;;;;;;;;;;6245530;28;20036;-88
2021/12/05 16:22:13;;;;;;;58.28;29.75;;;;;;;;;;6240029;28;19913;-88
2021/12/05 16:25:18;;;;;;;59.38;31.70;;;;;;;;;;6237866;28;20028;-88
2021/12/05 16:28:23;;;;;;;51.80;28.13;;;;;;;;;;6234989;28;20116;-89
2021/12/05 16:31:30;;;;;;;57.28;29.00;;;;;;;;;;6237578;28;20029;-88
2021/12/05 16:34:32;;;;;;;56.38;31.52;;;;;;;;;;6241895;28;20468;-88
2021/12/05 16:37:33;;;;;;;55.08;30.83;;;;;;;;;;6238947;28;20402;-88
2021/12/05 16:40:49;;;;;;;44.90;27.00;;;;;;;;;;6248206;28;20030;-88
2021/12/05 16:43:52;;;;;;;43.60;23.52;;;;;;;;;;6238170;28;20071;-88
2021/12/05 16:46:55;;;;;;;48.15;25.55;;;;;;;;;;6244507;28;20009;-88
2021/12/05 16:49:57;;;;;;;47.25;26.88;;;;;;;;;;6248695;28;20037;-88
2021/12/05 16:52:57;;;;;;;56.03;30.92;;;;;;;;;;6247349;28;20386;-87
2021/12/05 16:56:00;;;;;;;59.80;29.52;;;;;;;;;;6239238;28;20021;-87
2021/12/05 16:59:05;;;;;;;56.90;30.73;;;;;;;;;;6237931;28;20040;-88
2021/12/05 17:02:32;;;;;;;72.20;37.67;;;;;;;;;;6235123;28;20041;-88
2021/12/05 17:05:33;;;;;;;70.28;39.47;;;;;;;;;;6227052;28;20080;-88
2021/12/05 17:08:34;;;;;;;63.55;33.58;;;;;;;;;;6241209;28;20064;-87
2021/12/05 17:11:37;;;;;;;75.38;37.78;;;;;;;;;;6241067;28;20032;-87
2021/12/05 17:14:37;;;;;;;69.72;37.60;;;;;;;;;;6229665;28;20029;-88
2021/12/05 17:17:39;;;;;;;78.38;44.17;;;;;;;;;;6229207;28;20053;-87
2021/12/05 17:20:44;;;;;;;59.63;29.77;;;;;;;;;;6235132;28;20501;-87
2021/12/05 17:23:59;;;;;;;151.63;71.20;;;;;;;;;;6230922;28;20063;-88
2021/12/05 17:27:01;;;;;;;120.97;61.13;;;;;;;;;;6239039;28;20381;-88
2021/12/05 17:30:01;;;;;;;;;;;;;;;;;;6250862;28;20022;-88
2021/12/05 17:33:02;;;;;;;219.93;103.53;;;;;;;;;;6227519;28;19948;-87
2021/12/05 17:36:14;;;;;;;128.00;65.22;;;;;;;;;;6228917;28;20064;-87
2021/12/05 17:39:16;;;;;;;126.70;63.35;;;;;;;;;;6226096;28;20168;-88
2021/12/05 17:42:16;;;;;;;;;;;;;;;;;;6225475;28;20024;-88
2021/12/05 17:45:17;;;;;;;162.23;84.15;;;;;;;;;;6228182;28;19909;-87
2021/12/05 17:48:17;;;;;;;110.68;55.78;;;;;;;;;;6232412;28;20022;-87
2021/12/05 17:51:19;;;;;;;95.75;50.50;;;;;;;;;;6228928;28;20200;-87
2021/12/05 17:54:29;;;;;;;97.40;52.80;;;;;;;;;;6233902;28;20084;-88
2021/12/05 17:57:40;;;;;;;136.52;72.55;;;;;;;;;;6232905;28;20112;-87
2021/12/05 18:00:56;;;;;;;163.50;82.07;;;;;;;;;;6234866;28;20018;-88
2021/12/05 18:03:57;;;;;;;162.57;85.32;;;;;;;;;;6234240;28;20373;-87
2021/12/05 18:06:57;;;;;;;155.85;80.63;;;;;;;;;;6233772;28;20018;-88
2021/12/05 18:09:58;;;;;;;145.73;75.70;;;;;;;;;;6234098;28;20033;-88
2021/12/05 18:13:00;;;;;;;143.40;69.95;;;;;;;;;;6237596;28;20013;-88
2021/12/05 18:16:06;;;;;;;111.72;53.30;;;;;;;;;;6228110;28;20065;-88
2021/12/05 18:19:10;;;;;;;114.40;53.60;;;;;;;;;;6230013;28;20385;-87
2021/12/05 18:22:11;;;;;;;110.60;57.40;;;;;;;;;;6224745;28;20025;-88
2021/12/05 18:25:12;;;;;;;124.43;69.10;;;;;;;;;;6224152;28;20049;-88
2021/12/05 18:28:13;;;;;;;132.00;70.55;;;;;;;;;;6238646;28;20033;-88
2021/12/05 18:31:17;;;;;;;124.68;69.05;;;;;;;;;;6236594;28;20025;-87
2021/12/05 18:34:20;;;;;;;118.13;66.78;;;;;;;;;;6235588;28;20778;-88
2021/12/05 18:37:21;;;;;;;125.13;68.38;;;;;;;;;;6230947;28;20030;-88
2021/12/05 18:40:22;;;;;;;120.20;64.85;;;;;;;;;;6228545;28;20032;-87
2021/12/05 18:43:27;;;;;;;119.47;64.50;;;;;;;;;;6224003;28;20121;-88
2021/12/05 18:46:27;;;;;;;163.25;79.72;;;;;;;;;;6230422;28;20020;-87
2021/12/05 18:49:28;;;;;;;133.80;75.00;;;;;;;;;;6231278;28;20050;-87
2021/12/05 18:52:33;;;;;;;118.23;61.27;;;;;;;;;;6232353;28;20041;-88
2021/12/05 18:55:34;;;;;;;141.70;79.63;;;;;;;;;;6234480;28;20377;-88
2021/12/05 18:58:38;;;;;;;151.20;80.70;;;;;;;;;;6239759;28;20037;-88
2021/12/05 19:05:02;;;;;;;198.30;98.55;;;;;;;;;;6231725;28;20033;-88
2021/12/05 19:14:25;;;;;;;178.55;90.68;;;;;;;;;;6225984;28;20030;-88
2021/12/05 19:17:29;;;;;;;165.57;77.85;;;;;;;;;;6242953;28;20057;-87
2021/12/05 19:20:30;;;;;;;188.65;92.00;;;;;;;;;;6238166;28;20041;-88
2021/12/05 19:23:31;;;;;;;225.93;106.95;;;;;;;;;;6233260;28;20021;-88
2021/12/05 19:26:32;;;;;;;204.68;96.53;;;;;;;;;;6228506;28;20021;-88
2021/12/05 19:29:33;;;;;;;151.38;79.78;;;;;;;;;;6235604;28;20048;-87
2021/12/05 19:32:34;;;;;;;130.75;68.07;;;;;;;;;;6231212;28;20025;-88
2021/12/05 19:35:34;;;;;;;129.82;69.03;;;;;;;;;;6228364;28;20573;-88
2021/12/05 19:38:35;;;;;;;130.57;70.47;;;;;;;;;;6232386;28;20321;-88
2021/12/05 19:41:35;;;;;;;138.32;70.32;;;;;;;;;;6227468;28;20495;-89
2021/12/05 19:44:36;;;;;;;104.75;63.92;;;;;;;;;;6226926;28;20029;-88
2021/12/05 19:47:36;;;;;;;117.07;63.95;;;;;;;;;;6233817;28;20028;-88
2021/12/05 19:50:40;;;;;;;115.03;62.75;;;;;;;;;;6241784;28;20037;-88
2021/12/05 19:53:42;;;;;;;125.88;63.92;;;;;;;;;;6237576;28;20022;-88
2021/12/05 19:56:43;;;;;;;112.97;53.05;;;;;;;;;;6227747;28;20022;-88
2021/12/05 19:59:43;;;;;;;102.78;51.85;;;;;;;;;;6227839;28;20017;-88
2021/12/05 20:02:45;;;;;;;109.65;57.05;;;;;;;;;;6229780;28;20413;-88
2021/12/05 20:05:45;;;;;;;132.88;66.85;;;;;;;;;;6229649;28;20013;-88
2021/12/05 20:08:46;;;;;;;124.35;64.18;;;;;;;;;;6236148;28;20018;-88
2021/12/05 20:11:47;;;;;;;130.93;67.95;;;;;;;;;;6233405;28;20030;-88
2021/12/05 20:14:47;;;;;;;138.32;70.38;;;;;;;;;;6238039;28;20028;-88
2021/12/05 20:17:49;;;;;;;138.43;69.75;;;;;;;;;;6222012;28;20029;-89
2021/12/05 20:20:51;;;;;;;143.27;74.18;;;;;;;;;;6241912;28;20017;-88
2021/12/05 20:23:52;;;;;;;172.68;81.50;;;;;;;;;;6228029;28;20436;-88
2021/12/05 20:26:52;;;;;;;238.82;109.10;;;;;;;;;;6233401;28;20018;-88
2021/12/05 20:29:52;;;;;;;206.18;102.43;;;;;;;;;;6233923;28;20460;-88
2021/12/05 20:32:54;;;;;;;193.93;96.68;;;;;;;;;;6237898;28;20108;-88
2021/12/05 20:35:54;;;;;;;190.50;97.45;;;;;;;;;;6236927;28;20022;-88
2021/12/05 20:38:54;;;;;;;177.95;92.82;;;;;;;;;;6244360;28;20053;-88
2021/12/05 20:41:55;;;;;;;218.38;110.20;;;;;;;;;;6233231;28;20018;-87
2021/12/05 20:44:56;;;;;;;256.13;121.70;;;;;;;;;;6240618;28;20500;-87
2021/12/05 20:47:57;;;;;;;270.80;118.13;;;;;;;;;;6237060;28;20493;-88
2021/12/05 20:50:58;;;;;;;257.98;118.90;;;;;;;;;;6238205;28;20053;-87
2021/12/05 20:54:00;;;;;;;422.80;203.05;;;;;;;;;;6234136;28;20359;-87
2021/12/05 20:57:00;;;;;;;;;;;;;;;;;;6240791;28;20381;-88
2021/12/05 21:00:00;;;;;;;321.35;153.05;;;;;;;;;;6237419;28;20357;-87
2021/12/05 21:03:03;;;;;;;372.15;167.27;;;;;;;;;;6231916;28;20485;-88
2021/12/05 21:06:07;;;;;;;369.10;170.25;;;;;;;;;;6240803;28;20018;-87
2021/12/05 21:09:07;;;;;;;338.95;160.05;;;;;;;;;;6241980;28;20025;-87
2021/12/05 21:12:08;;;;;;;293.60;142.15;;;;;;;;;;6241908;28;20418;-87
2021/12/05 21:15:09;;;;;;;250.25;123.40;;;;;;;;;;6234494;28;20045;-87
2021/12/05 21:18:10;;;;;;;250.50;123.22;;;;;;;;;;6234978;28;20012;-87
2021/12/05 21:21:16;;;;;;;249.27;128.13;;;;;;;;;;6245508;28;20010;-87
2021/12/05 21:24:16;;;;;;;270.80;122.82;;;;;;;;;;6243278;28;20093;-87
2021/12/05 21:27:16;;;;;;;246.50;114.97;;;;;;;;;;6236570;28;20033;-87
2021/12/05 21:30:20;;;;;;;255.68;122.13;;;;;;;;;;6236591;28;20029;-88
2021/12/05 21:33:21;;;;;;;271.48;126.32;;;;;;;;;;6229540;28;20130;-87
2021/12/05 21:36:21;;;;;;;241.90;117.30;;;;;;;;;;6229408;28;20077;-88
2021/12/05 21:39:22;;;;;;;246.23;124.68;;;;;;;;;;6230943;28;20036;-88
2021/12/05 21:42:22;;;;;;;237.88;113.45;;;;;;;;;;6232346;28;20076;-87
2021/12/05 21:45:23;;;;;;;222.65;108.28;;;;;;;;;;6228609;28;20024;-87
2021/12/05 21:48:24;;;;;;;239.48;116.05;;;;;;;;;;6242362;28;20010;-87
2021/12/05 21:51:24;;;;;;;242.85;112.22;;;;;;;;;;6234629;28;20048;-88
2021/12/05 21:54:25;;;;;;;198.00;95.53;;;;;;;;;;6238683;28;20013;-88
2021/12/05 21:57:25;;;;;;;228.60;103.38;;;;;;;;;;6238489;28;20025;-87
2021/12/05 22:00:27;;;;;;;217.38;100.45;;;;;;;;;;6237826;28;20611;-87
2021/12/05 22:03:27;;;;;;;232.10;108.93;;;;;;;;;;6239982;28;20022;-87
2021/12/05 22:06:28;;;;;;;252.10;123.47;;;;;;;;;;6242912;28;20022;-88
2021/12/05 22:09:28;;;;;;;245.02;118.95;;;;;;;;;;6238721;28;20025;-87
2021/12/05 22:12:29;;;;;;;260.73;123.75;;;;;;;;;;6239741;28;20112;-87
2021/12/05 22:15:30;;;;;;;237.10;108.78;;;;;;;;;;6245795;28;20017;-88
2021/12/05 22:18:31;;;;;;;264.20;120.55;;;;;;;;;;6246220;28;20509;-87
2021/12/05 22:21:38;;;;;;;241.50;107.93;;;;;;;;;;6230134;28;20344;-88
2021/12/05 22:24:38;;;;;;;250.70;117.95;;;;;;;;;;6229889;28;20060;-87
2021/12/05 22:27:39;;;;;;;244.38;112.70;;;;;;;;;;6234002;28;20014;-87
2021/12/05 22:30:39;;;;;;;235.52;107.65;;;;;;;;;;6231394;28;20037;-87
2021/12/05 22:33:40;;;;;;;336.63;140.68;;;;;;;;;;6233788;28;20037;-87
2021/12/05 22:36:41;;;;;;;379.80;158.48;;;;;;;;;;6230013;28;20477;-87
2021/12/05 22:39:41;;;;;;;350.73;160.00;;;;;;;;;;6248829;28;20023;-87
2021/12/05 22:42:41;;;;;;;314.77;137.32;;;;;;;;;;6237697;28;20250;-87
2021/12/05 22:45:42;;;;;;;331.27;143.00;;;;;;;;;;6237882;28;20056;-87
2021/12/05 22:48:42;;;;;;;365.05;153.02;;;;;;;;;;6230847;28;20022;-87
2021/12/05 22:51:43;;;;;;;343.75;141.80;;;;;;;;;;6240126;28;20393;-87
2021/12/05 22:54:44;;;;;;;293.80;124.68;;;;;;;;;;6243857;28;20016;-88
2021/12/05 22:57:45;;;;;;;238.98;106.45;;;;;;;;;;6229728;28;20009;-87
2021/12/05 23:00:54;;;;;;;219.98;105.18;;;;;;;;;;6237881;28;20022;-87
2021/12/05 23:03:56;;;;;;;187.43;98.65;;;;;;;;;;6246661;28;20009;-87
2021/12/05 23:06:58;;;;;;;214.32;97.28;;;;;;;;;;6235229;28;20014;-87